Time;durP1;ratioP1;P1;durP2;ratioP2;P2;SDS_P1;SDS_P2;PMS_P1;PMS_P2;Temp;Humidity;BMP_temperature;BMP_pressure;BME280_temperature;BME280_humidity;BME280_pressure;Samples;Min_cycle;Max_cycle;Signal;HPM_P1;HPM_P2
2020/12/07 00:00:21;;;;;;;3.70;0.73;;;7.10;79.70;;;;;;5029383;28;79905;-72
2020/12/07 00:02:48;;;;;;;2.40;0.88;;;7.10;79.90;;;;;;5027914;28;81063;-73
2020/12/07 00:05:13;;;;;;;2.35;0.90;;;7.10;79.90;;;;;;5027872;28;81099;-73
2020/12/07 00:07:40;;;;;;;3.45;0.77;;;7.10;80.20;;;;;;5027989;28;80264;-73
2020/12/07 00:10:07;;;;;;;3.15;1.23;;;7.10;80.20;;;;;;5029425;28;82929;-73
2020/12/07 00:12:35;;;;;;;4.03;0.75;;;7.20;80.00;;;;;;5030229;28;81404;-75
2020/12/07 00:15:01;;;;;;;8.73;1.40;;;7.20;79.80;;;;;;5027839;28;80802;-73
2020/12/07 00:17:28;;;;;;;1.73;0.77;;;7.20;79.70;;;;;;5029339;28;80260;-72
2020/12/07 00:19:54;;;;;;;3.03;1.20;;;7.30;80.20;;;;;;5027334;28;79940;-72
2020/12/07 00:22:24;;;;;;;3.58;0.95;;;7.30;80.10;;;;;;5027317;28;81429;-71
2020/12/07 00:24:54;;;;;;;3.10;1.10;;;7.30;80.30;;;;;;5028657;28;81098;-71
2020/12/07 00:27:25;;;;;;;2.50;0.80;;;7.30;80.40;;;;;;5010188;28;82623;-70
2020/12/07 00:29:51;;;;;;;2.95;1.42;;;7.30;80.80;;;;;;5027364;28;80767;-71
2020/12/07 00:32:19;;;;;;;4.28;1.08;;;7.30;80.70;;;;;;5026667;28;82727;-72
2020/12/07 00:34:45;;;;;;;2.22;0.82;;;7.30;80.90;;;;;;5028545;28;80891;-71
2020/12/07 00:37:11;;;;;;;2.33;1.00;;;7.30;81.00;;;;;;5026775;28;82796;-72
2020/12/07 00:39:38;;;;;;;2.30;1.00;;;7.40;81.00;;;;;;5027614;28;80854;-73
2020/12/07 00:42:04;;;;;;;2.20;0.93;;;7.40;80.90;;;;;;5027696;28;82498;-73
2020/12/07 00:44:30;;;;;;;2.72;1.00;;;7.40;81.10;;;;;;5028358;28;83466;-72
2020/12/07 00:46:56;;;;;;;2.88;1.10;;;7.40;81.10;;;;;;5028291;28;82912;-74
2020/12/07 00:49:22;;;;;;;2.65;1.23;;;7.40;81.30;;;;;;5029363;28;80899;-71
2020/12/07 00:51:49;;;;;;;6.38;1.50;;;7.40;81.40;;;;;;5028286;28;83777;-74
2020/12/07 00:54:18;;;;;;;2.65;1.20;;;7.50;81.30;;;;;;5027151;28;81177;-73
2020/12/07 00:56:44;;;;;;;3.10;1.50;;;7.50;81.20;;;;;;5026716;28;80324;-73
2020/12/07 00:59:11;;;;;;;4.13;1.70;;;7.50;81.20;;;;;;5026476;28;80819;-72
2020/12/07 01:01:40;;;;;;;3.15;1.00;;;7.50;81.40;;;;;;5009313;28;79932;-68
2020/12/07 01:04:06;;;;;;;3.00;1.27;;;7.60;81.20;;;;;;5027829;28;80948;-73
2020/12/07 01:06:32;;;;;;;2.83;1.27;;;7.60;81.20;;;;;;5026565;28;79897;-73
2020/12/07 01:08:59;;;;;;;2.45;1.20;;;7.60;81.10;;;;;;5026397;28;80903;-72
2020/12/07 01:11:25;;;;;;;3.15;1.40;;;7.70;81.00;;;;;;5028344;28;80022;-73
2020/12/07 01:13:51;;;;;;;5.03;1.40;;;7.70;81.20;;;;;;5029085;28;81094;-73
2020/12/07 01:16:19;;;;;;;7.32;2.05;;;7.70;81.50;;;;;;5027667;28;80922;-73
2020/12/07 01:18:45;;;;;;;2.95;1.20;;;7.70;81.40;;;;;;5029680;28;79774;-72
2020/12/07 01:21:12;;;;;;;4.13;1.50;;;7.70;81.40;;;;;;5028041;28;82258;-72
2020/12/07 01:23:40;;;;;;;6.43;1.33;;;7.70;81.30;;;;;;5026169;28;79600;-72
2020/12/07 01:26:07;;;;;;;3.25;1.55;;;7.80;81.50;;;;;;5025431;28;83769;-73
2020/12/07 01:28:33;;;;;;;3.47;2.05;;;7.80;81.40;;;;;;5027252;28;80619;-70
2020/12/07 01:30:59;;;;;;;4.93;1.83;;;7.80;81.40;;;;;;5027263;28;79843;-72
2020/12/07 01:33:24;;;;;;;5.55;1.50;;;7.80;81.80;;;;;;5025664;28;81055;-73
2020/12/07 01:35:50;;;;;;;3.45;1.40;;;7.80;82.00;;;;;;5025395;28;83335;-75
2020/12/07 01:38:16;;;;;;;4.00;1.70;;;7.80;82.10;;;;;;5025492;28;79762;-73
2020/12/07 01:40:42;;;;;;;4.57;1.45;;;7.80;82.10;;;;;;5025638;28;80551;-73
2020/12/07 01:43:07;;;;;;;4.75;1.75;;;7.90;82.10;;;;;;5027195;28;80770;-73
2020/12/07 01:45:33;;;;;;;6.10;2.00;;;7.90;82.00;;;;;;5025452;28;82291;-70
2020/12/07 01:47:59;;;;;;;3.17;1.65;;;7.90;82.00;;;;;;5025246;28;82692;-73
2020/12/07 01:50:26;;;;;;;6.68;1.95;;;7.90;82.10;;;;;;5027193;28;80008;-71
2020/12/07 01:52:53;;;;;;;4.20;1.27;;;7.90;81.70;;;;;;5025033;28;80921;-72
2020/12/07 01:55:18;;;;;;;2.65;1.35;;;7.90;81.70;;;;;;5026777;28;80605;-72
2020/12/07 01:57:44;;;;;;;3.22;1.20;;;7.90;81.60;;;;;;5028655;28;80716;-74
2020/12/07 02:00:10;;;;;;;2.58;1.40;;;8.00;81.40;;;;;;5028023;28;80656;-71
2020/12/07 02:02:36;;;;;;;4.95;1.17;;;8.00;81.40;;;;;;5028877;28;80848;-71
2020/12/07 02:05:02;;;;;;;4.72;1.50;;;8.00;81.40;;;;;;5030088;28;80749;-73
2020/12/07 02:07:28;;;;;;;6.55;1.60;;;8.00;81.30;;;;;;5030592;28;80778;-72
2020/12/07 02:09:53;;;;;;;4.43;1.70;;;8.00;81.20;;;;;;5028819;28;81029;-73
2020/12/07 02:12:19;;;;;;;3.70;1.70;;;8.10;81.20;;;;;;5028759;28;81105;-74
2020/12/07 02:14:45;;;;;;;17.35;2.10;;;8.10;81.20;;;;;;5028603;28;79841;-70
2020/12/07 02:17:11;;;;;;;3.35;1.60;;;8.10;81.20;;;;;;5029799;28;81248;-70
2020/12/07 02:19:37;;;;;;;4.22;2.20;;;8.10;81.00;;;;;;5028654;28;80335;-71
2020/12/07 02:22:03;;;;;;;2.70;1.45;;;8.20;80.90;;;;;;5030098;28;80550;-71
2020/12/07 02:24:28;;;;;;;2.80;1.30;;;8.20;81.00;;;;;;5030086;28;80066;-72
2020/12/07 02:26:54;;;;;;;6.22;1.50;;;8.20;80.90;;;;;;5028935;28;82741;-70
2020/12/07 02:29:28;;;;;;;1.38;0.73;;;8.20;80.80;;;;;;5030520;28;80363;-72
2020/12/07 02:32:11;;;;;;;2.92;1.10;;;8.20;80.80;;;;;;5028008;28;82894;-72
2020/12/07 02:34:38;;;;;;;3.85;1.10;;;8.20;80.90;;;;;;5027642;28;81156;-71
2020/12/07 02:37:04;;;;;;;3.00;1.33;;;8.20;80.80;;;;;;5028646;28;80734;-74
2020/12/07 02:39:30;;;;;;;2.33;1.17;;;8.20;80.80;;;;;;5030800;28;79993;-71
2020/12/07 02:41:55;;;;;;;3.85;0.80;;;8.20;80.80;;;;;;5030173;28;80593;-72
2020/12/07 02:44:21;;;;;;;4.13;1.20;;;8.20;80.90;;;;;;5028176;28;82470;-70
2020/12/07 02:46:47;;;;;;;1.70;0.90;;;8.20;80.90;;;;;;5029723;28;80786;-73
2020/12/07 02:49:13;;;;;;;5.18;1.95;;;8.20;80.90;;;;;;5030172;28;79982;-73
2020/12/07 02:51:38;;;;;;;2.80;1.05;;;8.20;80.90;;;;;;5030276;28;81123;-72
2020/12/07 02:54:04;;;;;;;2.47;1.17;;;8.20;80.90;;;;;;5031540;28;79485;-72
2020/12/07 02:56:30;;;;;;;2.85;1.00;;;8.30;80.90;;;;;;5029871;28;81065;-72
2020/12/07 02:58:56;;;;;;;6.53;1.30;;;8.30;81.00;;;;;;5028006;28;79760;-73
2020/12/07 03:01:21;;;;;;;3.92;1.25;;;8.30;81.00;;;;;;5029630;28;81000;-71
2020/12/07 03:03:47;;;;;;;2.85;1.20;;;8.30;81.10;;;;;;5027840;28;82439;-70
2020/12/07 03:06:13;;;;;;;4.25;1.13;;;8.30;81.10;;;;;;5028110;28;81149;-74
2020/12/07 03:08:39;;;;;;;4.80;0.98;;;8.30;81.10;;;;;;5028575;28;80704;-74
2020/12/07 03:11:05;;;;;;;2.88;1.20;;;8.30;81.20;;;;;;5030767;28;84713;-74
2020/12/07 03:13:31;;;;;;;3.33;1.00;;;8.40;81.20;;;;;;5030640;28;81883;-73
2020/12/07 03:15:57;;;;;;;2.50;1.02;;;8.30;81.20;;;;;;5029360;28;82617;-75
2020/12/07 03:18:23;;;;;;;2.20;1.13;;;8.30;81.10;;;;;;5030805;28;79774;-74
2020/12/07 03:20:49;;;;;;;3.78;1.10;;;8.40;81.10;;;;;;5029511;28;80712;-74
2020/12/07 03:23:15;;;;;;;3.38;1.33;;;8.30;81.10;;;;;;5031378;28;80097;-74
2020/12/07 03:25:40;;;;;;;2.65;0.98;;;8.40;81.10;;;;;;5031650;28;83719;-73
2020/12/07 03:28:06;;;;;;;2.92;0.82;;;8.40;81.00;;;;;;5030001;28;82738;-73
2020/12/07 03:30:32;;;;;;;1.48;0.70;;;8.40;81.00;;;;;;5028302;28;81114;-73
2020/12/07 03:32:58;;;;;;;4.00;0.98;;;8.40;81.00;;;;;;5028364;28;82696;-73
2020/12/07 03:35:24;;;;;;;2.67;1.40;;;8.40;81.00;;;;;;5028916;28;81697;-71
2020/12/07 03:37:49;;;;;;;2.25;1.02;;;8.40;81.20;;;;;;5028424;28;82135;-71
2020/12/07 03:40:15;;;;;;;1.75;0.68;;;8.40;81.20;;;;;;5028981;28;79989;-71
2020/12/07 03:42:41;;;;;;;2.33;0.98;;;8.40;81.40;;;;;;5027792;28;83072;-73
2020/12/07 03:45:07;;;;;;;3.70;0.93;;;8.40;81.60;;;;;;5031077;28;80154;-73
2020/12/07 03:47:33;;;;;;;6.88;0.85;;;8.40;81.60;;;;;;5027254;28;82449;-75
2020/12/07 03:49:58;;;;;;;1.50;0.60;;;8.40;81.70;;;;;;5027057;28;81671;-72
2020/12/07 03:52:24;;;;;;;1.98;0.65;;;8.40;81.50;;;;;;5026990;28;80025;-71
2020/12/07 03:54:50;;;;;;;2.33;0.70;;;8.40;81.50;;;;;;5029192;28;81128;-70
2020/12/07 03:57:16;;;;;;;1.52;0.60;;;8.40;81.50;;;;;;5027047;28;80852;-71
2020/12/07 03:59:42;;;;;;;3.20;0.77;;;8.40;81.60;;;;;;5026939;28;80717;-69
2020/12/07 04:02:07;;;;;;;3.63;0.90;;;8.40;81.40;;;;;;5026804;28;80175;-71
2020/12/07 04:07:28;;;;;;;2.17;0.80;;;8.50;81.30;;;;;;5022721;28;80015;-72
2020/12/07 04:09:54;;;;;;;1.80;0.82;;;8.40;81.30;;;;;;5026274;28;81568;-70
2020/12/07 04:12:19;;;;;;;3.05;1.20;;;8.40;81.20;;;;;;5026772;28;82755;-72
2020/12/07 04:14:45;;;;;;;4.05;1.15;;;8.50;81.00;;;;;;5028352;28;80638;-72
2020/12/07 04:17:11;;;;;;;4.57;1.20;;;8.50;81.00;;;;;;5025640;28;81333;-73
2020/12/07 04:19:36;;;;;;;2.63;0.75;;;8.50;80.90;;;;;;5026384;28;82373;-71
2020/12/07 04:22:02;;;;;;;4.88;1.00;;;8.50;80.80;;;;;;5025936;28;82401;-72
2020/12/07 04:24:28;;;;;;;4.72;1.10;;;8.50;80.80;;;;;;5026867;28;81097;-70
2020/12/07 04:26:54;;;;;;;2.10;0.98;;;8.60;80.80;;;;;;5026957;28;80407;-71
2020/12/07 04:29:20;;;;;;;3.08;1.10;;;8.60;80.80;;;;;;5027885;28;79613;-72
2020/12/07 04:31:45;;;;;;;3.40;1.02;;;8.60;80.70;;;;;;5028091;28;79738;-71
2020/12/07 04:34:11;;;;;;;1.55;0.77;;;8.60;80.70;;;;;;5026365;28;81310;-70
2020/12/07 04:36:37;;;;;;;3.35;1.10;;;8.60;80.80;;;;;;5026421;28;80052;-73
2020/12/07 04:39:03;;;;;;;2.63;1.20;;;8.60;80.80;;;;;;5026552;28;81198;-72
2020/12/07 04:41:29;;;;;;;1.90;0.80;;;8.60;80.60;;;;;;5026273;28;80426;-72
2020/12/07 04:43:56;;;;;;;3.63;1.70;;;8.70;80.70;;;;;;5026590;28;79873;-69
2020/12/07 04:46:21;;;;;;;2.03;0.90;;;8.70;80.60;;;;;;5028060;28;80743;-75
2020/12/07 04:48:53;;;;;;;4.20;1.08;;;8.70;80.60;;;;;;5028873;28;80544;-73
2020/12/07 04:51:20;;;;;;;3.70;1.40;;;8.70;80.60;;;;;;5026049;28;80974;-72
2020/12/07 04:53:49;;;;;;;2.17;0.98;;;8.70;80.50;;;;;;5026670;28;83860;-71
2020/12/07 04:56:15;;;;;;;3.15;1.02;;;8.70;80.50;;;;;;5026578;28;80052;-72
2020/12/07 04:58:43;;;;;;;3.10;0.80;;;8.70;80.50;;;;;;5027078;28;81833;-72
2020/12/07 05:01:09;;;;;;;2.58;1.35;;;8.70;80.50;;;;;;5026769;28;82585;-72
2020/12/07 05:03:35;;;;;;;2.55;0.90;;;8.70;80.50;;;;;;5026689;28;83705;-73
2020/12/07 05:06:01;;;;;;;1.80;0.82;;;8.70;80.50;;;;;;5026051;28;82717;-71
2020/12/07 05:08:27;;;;;;;2.67;1.08;;;8.70;80.40;;;;;;5025725;28;83897;-71
2020/12/07 05:11:00;;;;;;;2.33;1.10;;;8.80;80.40;;;;;;5025835;28;80436;-71
2020/12/07 05:15:57;;;;;;;4.15;1.27;;;8.80;80.30;;;;;;5027022;28;79948;-72
2020/12/07 05:18:23;;;;;;;2.88;1.10;;;8.70;80.40;;;;;;5027705;28;79873;-71
2020/12/07 05:20:49;;;;;;;5.95;1.02;;;8.80;80.30;;;;;;5027358;28;80586;-73
2020/12/07 05:23:18;;;;;;;3.60;1.00;;;8.80;80.50;;;;;;5025981;28;80781;-72
2020/12/07 05:25:45;;;;;;;4.00;0.80;;;8.80;80.40;;;;;;5025666;28;79592;-72
2020/12/07 05:28:16;;;;;;;7.25;1.88;;;8.80;80.30;;;;;;5026016;28;80001;-71
2020/12/07 05:30:45;;;;;;;3.08;1.17;;;8.80;80.30;;;;;;5029855;28;80639;-73
2020/12/07 05:33:12;;;;;;;2.47;1.02;;;8.80;80.30;;;;;;5031195;28;79719;-73
2020/12/07 05:35:39;;;;;;;5.07;0.90;;;8.90;80.30;;;;;;5031507;28;80770;-73
2020/12/07 05:38:06;;;;;;;2.35;1.00;;;8.80;80.30;;;;;;5029642;28;79780;-72
2020/12/07 05:40:32;;;;;;;3.60;1.38;;;8.80;80.30;;;;;;5031190;28;80545;-73
2020/12/07 05:42:59;;;;;;;3.22;1.45;;;8.80;80.20;;;;;;5029270;28;82317;-73
2020/12/07 05:45:26;;;;;;;2.60;0.60;;;8.90;80.30;;;;;;5031067;28;80788;-72
2020/12/07 05:47:53;;;;;;;1.98;0.63;;;8.90;80.20;;;;;;5030677;28;80591;-72
2020/12/07 05:50:20;;;;;;;2.78;0.90;;;8.90;80.10;;;;;;5029572;28;82953;-72
2020/12/07 05:52:50;;;;;;;3.03;1.15;;;8.90;80.20;;;;;;5029371;28;83662;-70
2020/12/07 05:55:18;;;;;;;4.18;0.90;;;8.90;80.20;;;;;;5029878;28;82296;-71
2020/12/07 05:57:58;;;;;;;4.00;0.70;;;8.90;80.40;;;;;;5029833;28;81088;-70
2020/12/07 06:00:25;;;;;;;4.13;1.25;;;8.90;80.40;;;;;;5028784;28;80137;-72
2020/12/07 06:02:52;;;;;;;3.50;0.95;;;8.90;80.60;;;;;;5031272;28;81018;-72
2020/12/07 06:05:23;;;;;;;3.35;0.90;;;8.90;80.60;;;;;;5029531;28;80735;-72
2020/12/07 06:08:14;;;;;;;2.72;0.70;;;8.90;80.60;;;;;;5031721;28;80347;-73
2020/12/07 06:10:51;;;;;;;2.70;0.80;;;8.90;80.80;;;;;;5023991;28;80260;-72
2020/12/07 06:13:24;;;;;;;4.65;0.88;;;8.90;81.20;;;;;;5030183;28;80007;-72
2020/12/07 06:15:51;;;;;;;2.33;0.40;;;8.90;81.30;;;;;;5030853;28;80052;-72
2020/12/07 06:18:30;;;;;;;1.73;0.70;;;8.90;81.90;;;;;;5028695;28;83384;-73
2020/12/07 06:21:06;;;;;;;1.60;0.40;;;8.90;81.80;;;;;;5031473;28;80207;-71
2020/12/07 06:23:39;;;;;;;3.05;0.50;;;8.90;82.00;;;;;;5030379;28;81196;-72
2020/12/07 06:26:11;;;;;;;3.47;0.70;;;8.90;82.20;;;;;;5030173;28;79791;-73
2020/12/07 06:28:39;;;;;;;2.85;0.50;;;8.90;82.40;;;;;;5030383;28;81652;-73
2020/12/07 06:31:13;;;;;;;1.48;0.60;;;8.90;82.60;;;;;;5033024;28;80182;-72
2020/12/07 06:33:46;;;;;;;;;;;8.90;82.90;;;;;;5032446;28;82950;-76
2020/12/07 06:36:28;;;;;;;1.25;0.40;;;8.90;83.90;;;;;;5039142;28;80397;-73
2020/12/07 06:38:58;;;;;;;2.60;0.55;;;8.80;83.40;;;;;;5029884;28;82007;-73
2020/12/07 06:41:34;;;;;;;4.78;0.60;;;8.80;83.50;;;;;;5027855;28;80759;-73
2020/12/07 06:44:02;;;;;;;1.80;0.68;;;8.80;83.70;;;;;;5028268;28;82605;-72
2020/12/07 06:47:11;;;;;;;1.48;0.70;;;8.80;83.80;;;;;;5027935;28;80920;-72
2020/12/07 06:50:03;;;;;;;1.73;0.85;;;8.80;83.80;;;;;;5027627;28;82514;-72
2020/12/07 06:52:26;;;;;;;3.35;0.95;;;8.70;83.90;;;;;;5028840;28;80671;-73
2020/12/07 06:55:09;;;;;;;2.20;0.65;;;8.80;84.00;;;;;;5027989;28;81083;-72
2020/12/07 06:57:39;;;;;;;4.70;0.75;;;8.80;83.70;;;;;;5027921;28;80489;-72
2020/12/07 07:00:10;;;;;;;2.63;0.57;;;8.90;83.70;;;;;;5028524;28;80680;-71
2020/12/07 07:02:43;;;;;;;2.45;0.80;;;8.90;83.70;;;;;;5028295;28;80333;-71
2020/12/07 07:05:10;;;;;;;5.78;1.02;;;8.90;83.60;;;;;;5028411;28;80793;-71
2020/12/07 07:07:36;;;;;;;0.70;0.38;;;8.90;83.60;;;;;;5028422;28;81647;-71
2020/12/07 07:10:04;;;;;;;2.05;0.60;;;8.90;83.50;;;;;;5027546;28;83977;-72
2020/12/07 07:12:30;;;;;;;4.97;1.23;;;8.90;83.40;;;;;;5027413;28;81729;-72
2020/12/07 07:14:56;;;;;;;2.95;0.80;;;9.00;83.40;;;;;;5029370;28;80590;-70
2020/12/07 07:17:28;;;;;;;1.38;0.60;;;9.00;83.50;;;;;;5027593;28;82473;-71
2020/12/07 07:19:54;;;;;;;2.17;1.10;;;8.90;83.60;;;;;;5027723;28;82415;-71
2020/12/07 07:22:20;;;;;;;2.00;0.75;;;9.00;83.50;;;;;;5027565;28;80448;-71
2020/12/07 07:30:17;;;;;;;1.80;0.75;;;9.10;83.40;;;;;;5029780;28;80342;-73
2020/12/07 07:32:44;;;;;;;2.55;0.50;;;9.10;83.30;;;;;;5028212;28;80662;-72
2020/12/07 07:35:12;;;;;;;1.85;0.80;;;9.10;83.40;;;;;;5027720;28;80794;-72
2020/12/07 07:37:39;;;;;;;3.10;0.88;;;9.10;83.30;;;;;;5027891;28;80768;-73
2020/12/07 07:40:20;;;;;;;1.52;0.50;;;9.10;83.40;;;;;;5027757;28;82637;-74
2020/12/07 07:42:56;;;;;;;2.75;0.60;;;9.20;83.30;;;;;;5028505;28;80007;-73
2020/12/07 07:45:26;;;;;;;1.85;0.98;;;9.20;83.30;;;;;;5030077;28;83103;-73
2020/12/07 07:48:00;;;;;;;1.38;0.50;;;9.20;83.20;;;;;;5030369;28;79855;-72
2020/12/07 08:17:55;;;;;;;2.05;0.75;;;9.40;82.50;;;;;;5025505;28;80492;-74
2020/12/07 08:20:27;;;;;;;1.55;0.70;;;9.40;82.40;;;;;;5026687;28;79870;-74
2020/12/07 08:23:07;;;;;;;2.75;0.60;;;9.50;82.30;;;;;;5026164;28;80743;-73
2020/12/07 08:25:44;;;;;;;2.58;0.60;;;9.60;82.20;;;;;;5027927;28;80799;-71
2020/12/07 08:28:21;;;;;;;1.63;0.40;;;9.60;82.10;;;;;;5026557;28;82442;-73
2020/12/07 08:31:08;;;;;;;3.15;0.60;;;9.60;82.10;;;;;;5026176;28;80870;-74
2020/12/07 08:33:54;;;;;;;1.60;0.60;;;9.60;82.10;;;;;;5026509;28;80767;-72
2020/12/07 08:36:19;;;;;;;1.30;0.50;;;9.70;82.10;;;;;;5026073;28;80292;-72
2020/12/07 08:38:46;;;;;;;1.83;0.93;;;9.60;82.10;;;;;;5026459;28;80987;-71
2020/12/07 08:41:16;;;;;;;1.77;0.60;;;9.70;82.10;;;;;;5026961;28;80041;-72
2020/12/07 08:43:45;;;;;;;1.60;0.60;;;9.70;82.00;;;;;;5026973;28;83934;-74
2020/12/07 08:46:15;;;;;;;2.20;0.82;;;9.70;82.00;;;;;;5027932;28;82608;-63
2020/12/07 08:48:41;;;;;;;2.00;0.82;;;9.70;82.10;;;;;;5026134;28;81243;-64
2020/12/07 08:51:08;;;;;;;2.40;0.82;;;9.70;82.10;;;;;;5026763;28;79632;-63
2020/12/07 08:53:34;;;;;;;1.70;0.50;;;9.60;82.20;;;;;;5026121;28;83049;-64
2020/12/07 08:56:04;;;;;;;1.65;1.00;;;9.70;82.20;;;;;;5027810;28;80046;-70
2020/12/07 08:58:30;;;;;;;1.48;0.50;;;9.70;82.10;;;;;;5026571;28;80622;-67
2020/12/07 09:00:58;;;;;;;1.15;0.50;;;9.80;81.90;;;;;;5028143;28;79722;-63
2020/12/07 09:03:24;;;;;;;1.70;0.70;;;9.90;81.70;;;;;;5025339;28;80789;-64
2020/12/07 09:05:50;;;;;;;6.30;2.88;;;9.90;81.50;;;;;;5025509;28;82602;-64
2020/12/07 09:08:15;;;;;;;1.95;0.50;;;9.90;81.40;;;;;;5025700;28;80684;-65
2020/12/07 09:10:41;;;;;;;5.72;1.88;;;9.90;81.30;;;;;;5025614;28;80720;-64
2020/12/07 09:13:07;;;;;;;2.58;0.40;;;10.00;81.20;;;;;;5025937;28;80745;-65
2020/12/07 09:15:33;;;;;;;1.42;0.32;;;10.00;81.20;;;;;;5025759;28;81774;-66
2020/12/07 09:17:59;;;;;;;1.92;0.40;;;10.00;81.20;;;;;;5025596;28;82403;-64
2020/12/07 09:20:25;;;;;;;2.78;0.57;;;10.00;81.20;;;;;;5025776;28;83044;-68
2020/12/07 09:22:51;;;;;;;2.13;0.65;;;10.10;81.10;;;;;;5025644;28;81881;-67
2020/12/07 09:25:17;;;;;;;1.15;0.35;;;10.20;80.70;;;;;;5025587;28;80154;-65
2020/12/07 09:27:43;;;;;;;1.10;0.30;;;10.50;80.00;;;;;;5025474;28;82583;-65
2020/12/07 09:30:09;;;;;;;1.88;0.40;;;10.90;78.70;;;;;;5025720;28;81493;-67
2020/12/07 09:32:35;;;;;;;1.25;0.68;;;11.10;77.80;;;;;;5025624;28;80774;-66
2020/12/07 09:35:03;;;;;;;0.98;0.40;;;11.20;77.50;;;;;;5025624;28;79821;-66
2020/12/07 09:37:29;;;;;;;1.25;0.47;;;11.20;77.30;;;;;;5025549;28;81546;-65
2020/12/07 09:39:55;;;;;;;0.80;0.40;;;11.20;77.30;;;;;;5025678;28;81229;-66
2020/12/07 09:42:21;;;;;;;2.15;0.75;;;11.20;77.40;;;;;;5025629;28;82568;-64
2020/12/07 09:44:47;;;;;;;2.67;0.80;;;11.10;77.60;;;;;;5027389;28;79648;-67
2020/12/07 09:47:12;;;;;;;1.10;0.40;;;11.20;77.50;;;;;;5008731;28;83393;-68
2020/12/07 09:49:38;;;;;;;1.58;0.60;;;11.40;77.00;;;;;;5025374;28;80389;-67
2020/12/07 09:52:04;;;;;;;1.40;0.45;;;11.40;76.70;;;;;;5025512;28;82916;-65
2020/12/07 09:54:36;;;;;;;1.33;0.40;;;11.50;76.50;;;;;;5027079;28;80209;-66
2020/12/07 09:57:02;;;;;;;1.83;0.70;;;11.60;76.10;;;;;;5025188;28;82761;-67
2020/12/07 09:59:28;;;;;;;2.38;0.85;;;11.70;75.70;;;;;;5025292;28;81598;-66
2020/12/07 10:01:54;;;;;;;1.85;0.60;;;11.70;75.80;;;;;;5024582;28;82637;-70
2020/12/07 10:04:20;;;;;;;1.05;0.20;;;11.80;75.50;;;;;;5025241;28;82326;-67
2020/12/07 10:06:46;;;;;;;1.63;0.70;;;11.80;75.30;;;;;;5025456;28;80597;-64
2020/12/07 10:09:11;;;;;;;2.92;1.65;;;11.70;75.50;;;;;;5025363;28;79967;-65
2020/12/07 10:11:37;;;;;;;1.20;0.50;;;11.70;75.70;;;;;;5026868;28;81065;-63
2020/12/07 10:14:03;;;;;;;3.22;1.25;;;11.60;75.90;;;;;;5026369;28;80868;-68
2020/12/07 10:16:29;;;;;;;4.97;0.50;;;11.60;76.10;;;;;;5026511;28;81852;-64
2020/12/07 10:18:55;;;;;;;2.65;1.17;;;11.50;76.20;;;;;;5028136;28;81544;-65
2020/12/07 10:21:25;;;;;;;0.93;0.52;;;11.40;76.30;;;;;;5028078;28;79805;-65
2020/12/07 10:23:51;;;;;;;1.27;0.50;;;11.40;76.60;;;;;;5028326;28;80224;-64
2020/12/07 10:26:22;;;;;;;2.05;0.70;;;11.50;76.30;;;;;;5028078;28;81168;-67
2020/12/07 10:28:48;;;;;;;1.08;0.35;;;12.80;73.50;;;;;;5028251;28;81510;-67
2020/12/07 10:31:14;;;;;;;0.88;0.30;;;14.00;68.30;;;;;;5029572;28;83550;-65
2020/12/07 10:33:40;;;;;;;1.98;0.40;;;15.00;64.40;;;;;;5028831;28;82991;-64
2020/12/07 10:36:07;;;;;;;1.75;0.70;;;14.60;65.10;;;;;;5028318;28;81359;-64
2020/12/07 10:38:33;;;;;;;2.20;0.43;;;15.00;63.50;;;;;;5030195;28;80226;-67
2020/12/07 10:40:59;;;;;;;1.45;0.30;;;14.50;64.60;;;;;;5029487;28;80645;-65
2020/12/07 10:43:25;;;;;;;1.80;0.60;;;13.90;66.30;;;;;;5027681;28;82567;-65
2020/12/07 10:45:51;;;;;;;1.45;0.60;;;13.30;68.00;;;;;;5027814;28;83370;-63
2020/12/07 10:48:17;;;;;;;1.75;0.60;;;12.80;69.50;;;;;;5027597;28;82782;-66
2020/12/07 10:50:43;;;;;;;2.60;0.77;;;12.60;70.50;;;;;;5027071;28;82610;-68
2020/12/07 10:53:08;;;;;;;2.55;0.70;;;12.40;71.20;;;;;;5029278;28;80736;-63
2020/12/07 10:55:34;;;;;;;2.22;1.00;;;12.20;71.60;;;;;;5029123;28;81040;-67
2020/12/07 10:58:00;;;;;;;2.25;0.98;;;12.20;72.00;;;;;;5029662;28;79786;-67
2020/12/07 11:00:26;;;;;;;1.77;0.90;;;12.10;72.30;;;;;;5027231;28;81108;-64
2020/12/07 11:02:52;;;;;;;1.48;0.65;;;12.10;72.40;;;;;;5027567;28;81439;-65
2020/12/07 11:05:17;;;;;;;1.50;0.70;;;12.00;72.70;;;;;;5027701;28;82754;-65
2020/12/07 11:07:46;;;;;;;1.52;0.68;;;11.90;72.70;;;;;;5027840;28;80434;-67
2020/12/07 11:10:12;;;;;;;1.00;0.40;;;11.90;72.70;;;;;;5027298;28;80821;-64
2020/12/07 11:12:40;;;;;;;4.70;0.60;;;11.90;72.40;;;;;;5027481;28;80412;-64
2020/12/07 11:15:08;;;;;;;2.20;0.57;;;11.90;72.40;;;;;;5026352;28;82559;-64
2020/12/07 11:17:34;;;;;;;1.98;0.70;;;12.00;71.90;;;;;;5013829;28;80898;-64
2020/12/07 11:20:00;;;;;;;1.58;0.35;;;12.00;71.70;;;;;;5016870;28;80301;-66
2020/12/07 11:22:26;;;;;;;1.45;0.45;;;12.10;70.90;;;;;;5027539;28;79976;-65
2020/12/07 11:24:52;;;;;;;1.52;0.28;;;12.20;69.50;;;;;;5027246;28;82688;-66
2020/12/07 11:27:17;;;;;;;1.05;0.30;;;12.50;68.70;;;;;;5026618;28;83361;-65
2020/12/07 11:29:43;;;;;;;2.85;0.50;;;12.50;67.70;;;;;;5028959;28;79756;-66
2020/12/07 11:32:09;;;;;;;3.45;0.60;;;12.50;66.60;;;;;;5026660;28;81169;-68
2020/12/07 11:34:35;;;;;;;1.45;0.40;;;12.50;66.20;;;;;;5022748;28;80033;-67
2020/12/07 11:37:01;;;;;;;1.45;0.40;;;13.00;64.40;;;;;;5021075;28;82002;-65
2020/12/07 11:44:34;;;;;;;4.50;0.55;;;12.90;64.70;;;;;;5020569;28;80557;-67
2020/12/07 11:47:07;;;;;;;2.15;0.45;;;12.90;64.60;;;;;;5015562;28;83635;-68
2020/12/07 11:49:33;;;;;;;1.63;0.30;;;13.60;62.40;;;;;;5019310;28;80542;-64
2020/12/07 11:52:03;;;;;;;1.42;0.40;;;14.40;59.40;;;;;;5028169;28;80650;-65
2020/12/07 11:54:29;;;;;;;3.00;0.50;;;14.20;59.50;;;;;;5026356;28;82232;-64
2020/12/07 11:56:55;;;;;;;0.90;0.30;;;13.60;60.40;;;;;;5028016;28;80192;-64
2020/12/07 11:59:21;;;;;;;2.60;0.30;;;13.10;61.50;;;;;;5026642;28;81709;-64
2020/12/07 12:01:47;;;;;;;2.45;0.47;;;12.90;62.60;;;;;;5027744;28;79769;-68
2020/12/07 12:04:13;;;;;;;1.58;0.40;;;13.00;62.80;;;;;;5026288;28;82214;-68
2020/12/07 12:06:39;;;;;;;3.97;0.85;;;13.50;61.90;;;;;;5023436;28;80704;-70
2020/12/07 12:09:11;;;;;;;2.50;0.35;;;13.70;60.40;;;;;;4989300;28;82801;-70
2020/12/07 12:11:37;;;;;;;1.38;0.38;;;13.70;60.60;;;;;;5012404;28;80732;-67
2020/12/07 12:14:06;;;;;;;2.85;0.40;;;13.90;60.60;;;;;;5030745;28;81209;-68
2020/12/07 12:16:33;;;;;;;3.05;0.43;;;13.60;61.40;;;;;;5027207;28;80238;-71
2020/12/07 12:19:00;;;;;;;1.70;0.47;;;13.50;62.50;;;;;;5026236;28;80892;-71
2020/12/07 12:21:28;;;;;;;1.55;0.68;;;13.40;63.00;;;;;;5026427;28;80903;-72
2020/12/07 12:23:56;;;;;;;1.80;0.60;;;13.80;62.00;;;;;;5027490;28;80346;-68
2020/12/07 12:26:22;;;;;;;1.42;0.45;;;14.00;61.30;;;;;;5009163;28;80936;-68
2020/12/07 12:28:50;;;;;;;7.32;0.98;;;13.90;61.30;;;;;;5026032;28;82912;-64
2020/12/07 12:31:17;;;;;;;0.98;0.32;;;13.60;62.10;;;;;;5025460;28;80466;-69
2020/12/07 12:33:44;;;;;;;1.42;0.30;;;13.90;61.80;;;;;;5025836;28;81058;-66
2020/12/07 12:36:15;;;;;;;2.35;0.90;;;13.90;61.40;;;;;;5027643;28;80219;-68
2020/12/07 12:38:41;;;;;;;2.47;0.52;;;13.70;61.60;;;;;;5025115;28;82483;-66
2020/12/07 12:41:08;;;;;;;2.67;0.80;;;13.40;62.30;;;;;;5027043;28;82315;-67
2020/12/07 12:43:34;;;;;;;5.05;0.50;;;13.10;63.40;;;;;;5027306;28;80796;-67
2020/12/07 12:46:03;;;;;;;2.55;1.00;;;12.90;64.20;;;;;;5027187;28;82572;-68
2020/12/07 12:48:29;;;;;;;3.30;0.50;;;12.90;64.80;;;;;;5025179;28;81656;-68
2020/12/07 12:50:55;;;;;;;1.88;0.60;;;12.70;65.30;;;;;;5025960;28;83285;-67
2020/12/07 12:53:20;;;;;;;1.58;0.38;;;12.60;66.10;;;;;;5025243;28;82520;-69
2020/12/07 12:55:46;;;;;;;1.83;0.50;;;12.50;66.50;;;;;;5027083;28;80091;-67
2020/12/07 12:58:12;;;;;;;2.25;0.50;;;12.40;67.00;;;;;;5025742;28;81193;-66
2020/12/07 13:00:38;;;;;;;3.47;1.00;;;12.70;66.70;;;;;;5012248;28;82646;-68
2020/12/07 13:03:03;;;;;;;1.23;0.50;;;12.80;66.30;;;;;;5005382;28;82106;-67
2020/12/07 13:05:29;;;;;;;2.40;0.80;;;13.20;65.00;;;;;;5021385;28;80181;-67
2020/12/07 13:07:55;;;;;;;2.85;0.93;;;13.60;64.00;;;;;;5017645;28;82418;-69
2020/12/07 13:10:21;;;;;;;1.95;0.80;;;13.80;62.60;;;;;;5026260;28;80307;-68
2020/12/07 13:12:47;;;;;;;2.00;0.50;;;13.90;61.00;;;;;;5017488;28;80582;-69
2020/12/07 13:15:14;;;;;;;1.48;0.38;;;13.90;59.50;;;;;;5016855;28;81339;-69
2020/12/07 13:17:42;;;;;;;1.83;0.57;;;13.90;58.10;;;;;;5024977;28;82492;-68
2020/12/07 13:20:10;;;;;;;1.08;0.30;;;13.80;57.80;;;;;;5009825;28;82524;-67
2020/12/07 13:22:48;;;;;;;2.58;0.32;;;13.90;57.50;;;;;;5005340;28;82429;-70
2020/12/07 13:25:21;;;;;;;1.60;0.38;;;13.90;56.20;;;;;;5013526;28;81933;-66
2020/12/07 13:30:16;;;;;;;2.90;1.08;;;13.80;57.90;;;;;;5017251;28;79980;-68
2020/12/07 13:32:43;;;;;;;1.95;0.47;;;13.40;59.10;;;;;;5009267;28;80498;-67
2020/12/07 13:35:08;;;;;;;1.42;0.32;;;13.10;60.00;;;;;;5013643;28;80045;-69
2020/12/07 13:37:37;;;;;;;0.88;0.30;;;13.00;60.40;;;;;;5012233;28;80815;-69
2020/12/07 13:40:05;;;;;;;1.13;0.20;;;12.80;60.60;;;;;;5024968;28;80757;-68